Main page
METAR-TAF:

METAR-TAF

Airports :

Cerklje ob Krki, Slovenia

Cerklje ob Krki Airport

latitude: 45-53-59N, longitude: 15-30-55E, elevation: 157 m

Current weather observation

The report was made 11 minutes ago, at 20:30 UTC
Wind 1 kt from variable directions
Temperature 20°C
Humidity 88%
Pressure 1009 hPa
Visibility 10 km or more

METAR: LJCE 272030Z AUTO VRB01KT 9999 NSC 20/18 Q1009

Time: 22:41 (20:41 UTC)

Forecast

The report was made 41 minutes ago, at 20:00 UTC
Forecast valid from 27 at 21 UTC to 28 at 06 UTC
Wind 5 kt from the West/Southwest
Visibility 10 km or more
no clouds below 1500 m and no cumulonimbus

TAF: LJCE 272000Z 2721/2806 25005KT CAVOK

Weather observations and forecasts of more than 4000 airports (METAR and TAF reports).

The available stations are represented by yellow and red dots on the map.

Hover mouse over dot to see the name of the station.

Then click to see weather observations and forecasts.

To change the map : click on the green buttons with a black cross to zoom in, on the green button with a dash to zoom out, or on the green arrows for adjacent maps.


METAR-TAF: